createdAt,value
2023-08-06T00:01:26.589Z,0.90
2023-08-06T00:03:54.066Z,1.00
2023-08-06T00:06:21.655Z,0.80
2023-08-06T00:08:48.963Z,0.50
2023-08-06T00:11:16.249Z,0.70
2023-08-06T00:13:43.680Z,0.73
2023-08-06T00:16:12.345Z,0.73
2023-08-06T00:18:40.634Z,0.57
2023-08-06T00:21:08.084Z,0.68
2023-08-06T00:23:35.426Z,0.70
2023-08-06T00:26:02.736Z,0.60
2023-08-06T00:28:30.044Z,0.70
2023-08-06T00:30:58.018Z,0.80
2023-08-06T00:33:25.910Z,0.60
2023-08-06T00:35:53.379Z,0.52
2023-08-06T00:38:20.702Z,0.55
2023-08-06T00:40:48.939Z,0.55
2023-08-06T00:43:17.439Z,0.65
2023-08-06T00:45:45.083Z,0.80
2023-08-06T00:48:12.566Z,1.00
2023-08-06T00:50:39.935Z,0.77
2023-08-06T00:53:10.109Z,0.60
2023-08-06T00:55:37.599Z,1.00
2023-08-06T00:58:05.847Z,0.70
2023-08-06T01:00:33.264Z,0.80
2023-08-06T01:03:01.111Z,0.63
2023-08-06T01:05:29.642Z,0.60
2023-08-06T01:08:20.456Z,0.77
2023-08-06T01:11:25.824Z,0.80
2023-08-06T01:14:03.322Z,0.65
2023-08-06T01:16:32.624Z,0.57
2023-08-06T01:19:00.170Z,0.90
2023-08-06T01:21:28.073Z,0.40
2023-08-06T01:23:56.113Z,0.85
2023-08-06T01:26:44.505Z,0.80
2023-08-06T01:29:31.315Z,0.70
2023-08-06T01:31:59.964Z,0.77
2023-08-06T01:34:32.430Z,1.02
2023-08-06T01:37:02.209Z,1.20
2023-08-06T01:39:29.580Z,0.80
2023-08-06T01:41:56.990Z,0.80
2023-08-06T01:44:25.074Z,1.00
2023-08-06T01:46:52.449Z,0.80
2023-08-06T01:49:19.736Z,0.63
2023-08-06T01:51:48.297Z,0.70
2023-08-06T01:54:15.614Z,0.70
2023-08-06T01:56:42.928Z,0.90
2023-08-06T01:59:10.292Z,1.00
2023-08-06T02:01:37.778Z,1.00
2023-08-06T02:04:05.190Z,0.75
2023-08-06T02:06:35.780Z,1.00
2023-08-06T02:09:03.275Z,0.90
2023-08-06T02:11:30.603Z,1.08
2023-08-06T02:13:57.976Z,0.80
2023-08-06T02:16:25.464Z,0.80
2023-08-06T02:18:52.836Z,0.85
2023-08-06T02:21:20.565Z,0.80
2023-08-06T02:23:47.871Z,0.60
2023-08-06T02:26:15.179Z,0.80
2023-08-06T02:28:42.537Z,1.00
2023-08-06T02:31:09.976Z,0.70
2023-08-06T02:36:15.036Z,0.90
2023-08-06T02:38:42.503Z,0.95
2023-08-06T02:41:09.955Z,1.08
2023-08-06T02:43:37.308Z,1.20
2023-08-06T02:46:04.802Z,0.88
2023-08-06T02:48:32.203Z,0.90
2023-08-06T02:51:00.869Z,0.95
2023-08-06T02:53:29.870Z,0.77
2023-08-06T02:56:00.002Z,0.90
2023-08-06T02:58:35.649Z,1.17
2023-08-06T03:01:11.313Z,1.05
2023-08-06T03:03:51.736Z,1.00
2023-08-06T03:06:25.270Z,0.55
2023-08-06T03:08:55.348Z,0.98
2023-08-06T03:11:22.698Z,1.00
2023-08-06T03:13:54.413Z,1.02
2023-08-06T03:16:21.912Z,1.00
2023-08-06T03:18:59.809Z,0.80
2023-08-06T03:21:27.308Z,0.75
2023-08-06T03:23:54.837Z,1.08
2023-08-06T03:26:25.556Z,1.05
2023-08-06T03:28:52.983Z,1.27
2023-08-06T03:31:20.778Z,1.10
2023-08-06T03:33:48.992Z,0.70
2023-08-06T03:36:19.861Z,0.80
2023-08-06T03:38:47.869Z,1.13
2023-08-06T03:41:16.418Z,1.00
2023-08-06T03:43:46.303Z,1.80
2023-08-06T03:46:20.550Z,1.05
2023-08-06T03:48:47.992Z,1.17
2023-08-06T03:51:15.296Z,1.08
2023-08-06T03:53:45.211Z,1.27
2023-08-06T03:56:12.870Z,0.98
2023-08-06T03:58:40.632Z,0.98
2023-08-06T04:01:09.566Z,1.35
2023-08-06T04:03:44.816Z,1.10
2023-08-06T04:06:14.383Z,0.80
2023-08-06T04:08:42.042Z,1.13
2023-08-06T04:11:09.566Z,0.90
2023-08-06T04:13:37.043Z,1.10
2023-08-06T04:16:04.799Z,1.52
2023-08-06T04:18:33.474Z,0.88
2023-08-06T04:21:02.289Z,0.98
2023-08-06T04:23:29.835Z,1.15
2023-08-06T04:26:01.912Z,0.85
2023-08-06T04:28:33.357Z,1.00
2023-08-06T04:31:01.143Z,1.10
2023-08-06T04:33:30.246Z,1.02
2023-08-06T04:36:00.900Z,1.10
2023-08-06T04:38:28.837Z,1.20
2023-08-06T04:41:00.157Z,1.33
2023-08-06T04:43:27.892Z,1.25
2023-08-06T04:45:56.869Z,1.30
2023-08-06T04:48:24.333Z,1.30
2023-08-06T04:50:52.146Z,1.45
2023-08-06T04:53:19.725Z,1.15
2023-08-06T04:55:47.213Z,1.27
2023-08-06T04:58:14.911Z,1.08
2023-08-06T05:00:42.305Z,1.17
2023-08-06T05:03:09.645Z,1.15
2023-08-06T05:05:37.078Z,1.15
2023-08-06T05:08:06.558Z,1.10
2023-08-06T05:10:34.089Z,1.20
2023-08-06T05:13:01.870Z,1.13
2023-08-06T05:15:29.272Z,0.93
2023-08-06T05:17:56.647Z,1.05
2023-08-06T05:20:24.000Z,1.08
2023-08-06T05:22:52.274Z,1.38
2023-08-06T05:25:19.658Z,1.20
2023-08-06T05:27:54.408Z,1.25
2023-08-06T05:30:21.744Z,1.27
2023-08-06T05:32:49.101Z,1.48
2023-08-06T05:35:16.473Z,1.40
2023-08-06T05:37:43.919Z,1.17
2023-08-06T05:40:11.367Z,1.10
2023-08-06T05:42:38.696Z,1.27
2023-08-06T05:45:06.414Z,1.27
2023-08-06T05:47:33.800Z,1.00
2023-08-06T05:50:01.222Z,1.45
2023-08-06T05:52:28.616Z,1.27
2023-08-06T05:54:56.246Z,1.02
2023-08-06T05:57:23.599Z,1.60
2023-08-06T05:59:50.935Z,0.98
2023-08-06T06:02:19.888Z,1.38
2023-08-06T06:04:47.293Z,1.20
2023-08-06T06:07:15.358Z,1.30
2023-08-06T06:09:42.720Z,1.02
2023-08-06T06:12:10.045Z,1.27
2023-08-06T06:14:37.391Z,1.50
2023-08-06T06:17:04.900Z,1.40
2023-08-06T06:19:32.328Z,1.45
2023-08-06T06:21:59.688Z,1.40
2023-08-06T06:24:26.967Z,1.38
2023-08-06T06:26:54.314Z,1.73
2023-08-06T06:29:21.662Z,1.35
2023-08-06T06:31:49.047Z,1.60
2023-08-06T06:34:16.500Z,1.20
2023-08-06T06:36:44.101Z,1.80
2023-08-06T06:39:16.732Z,1.77
2023-08-06T06:41:45.396Z,1.75
2023-08-06T06:44:24.139Z,1.40
2023-08-06T06:46:51.715Z,1.60
2023-08-06T06:49:19.508Z,1.38
2023-08-06T06:51:54.357Z,1.35
2023-08-06T06:54:22.320Z,1.40
2023-08-06T06:56:56.366Z,1.40
2023-08-06T06:59:24.203Z,1.67
2023-08-06T07:01:56.700Z,1.25
2023-08-06T07:04:24.536Z,1.33
2023-08-06T07:06:54.128Z,1.20
2023-08-06T07:09:21.441Z,1.50
2023-08-06T07:11:48.933Z,1.50
2023-08-06T07:14:18.351Z,1.10
2023-08-06T07:16:45.791Z,1.10
2023-08-06T07:19:13.737Z,1.25
2023-08-06T07:21:41.490Z,1.38
2023-08-06T07:24:08.815Z,1.10
2023-08-06T07:26:56.465Z,1.30
2023-08-06T07:29:24.273Z,1.40
2023-08-06T07:31:52.310Z,1.00
2023-08-06T07:34:20.154Z,1.20
2023-08-06T07:36:48.842Z,1.27
2023-08-06T07:41:47.519Z,1.00
2023-08-06T07:44:16.159Z,1.20
2023-08-06T07:49:12.390Z,0.98
2023-08-06T07:51:39.973Z,1.20
2023-08-06T07:54:10.259Z,1.10
2023-08-06T07:56:38.014Z,1.10
2023-08-06T07:59:05.463Z,0.90
2023-08-06T08:01:33.031Z,1.10
2023-08-06T08:04:00.649Z,0.93
2023-08-06T08:06:43.337Z,1.00
2023-08-06T08:09:10.935Z,0.68
2023-08-06T08:11:38.313Z,1.13
2023-08-06T08:14:05.699Z,0.82
2023-08-06T08:16:33.801Z,1.33
2023-08-06T08:19:01.877Z,0.90
2023-08-06T08:21:30.411Z,0.80
2023-08-06T08:23:59.977Z,0.80
2023-08-06T08:26:29.260Z,0.80
2023-08-06T08:28:59.345Z,0.93
2023-08-06T08:31:30.307Z,1.10
2023-08-06T08:34:00.255Z,1.27
2023-08-06T08:36:28.042Z,1.13
2023-08-06T08:38:55.346Z,1.15
2023-08-06T08:41:22.700Z,0.90
2023-08-06T08:43:52.554Z,0.95
2023-08-06T08:46:20.790Z,0.80
2023-08-06T08:48:49.222Z,0.70
2023-08-06T08:51:18.516Z,0.80
2023-08-06T08:53:48.217Z,1.10
2023-08-06T08:56:15.912Z,0.90
2023-08-06T08:58:43.217Z,0.90
2023-08-06T09:01:11.180Z,0.85
2023-08-06T09:03:40.054Z,0.80
2023-08-06T09:06:12.706Z,0.70
2023-08-06T09:08:50.054Z,0.80
2023-08-06T09:11:18.139Z,0.70
2023-08-06T09:13:46.023Z,0.80
2023-08-06T09:16:13.375Z,0.60
2023-08-06T09:18:41.364Z,0.75
2023-08-06T09:21:15.283Z,0.90
2023-08-06T09:23:42.584Z,0.80
2023-08-06T09:26:16.141Z,0.60
2023-08-06T09:28:44.569Z,0.80
2023-08-06T09:31:12.190Z,0.60
2023-08-06T09:33:39.832Z,0.68
2023-08-06T09:36:11.800Z,0.77
2023-08-06T09:38:41.360Z,0.43
2023-08-06T09:41:09.235Z,0.68
2023-08-06T09:43:45.641Z,0.68
2023-08-06T09:46:15.297Z,0.80
2023-08-06T09:48:48.011Z,0.70
2023-08-06T09:51:16.278Z,0.88
2023-08-06T09:53:44.004Z,0.70
2023-08-06T09:56:15.026Z,0.70
2023-08-06T09:58:43.345Z,0.73
2023-08-06T10:01:13.406Z,0.98
2023-08-06T10:03:41.964Z,0.80
2023-08-06T10:06:13.238Z,0.55
2023-08-06T10:08:42.614Z,0.40
2023-08-06T10:11:11.586Z,0.40
2023-08-06T10:13:39.647Z,0.60
2023-08-06T10:16:07.817Z,0.60
2023-08-06T10:18:38.686Z,0.60
2023-08-06T10:21:09.775Z,0.52
2023-08-06T10:23:39.517Z,0.45
2023-08-06T10:26:06.892Z,0.70
2023-08-06T10:28:39.631Z,0.77
2023-08-06T10:31:07.746Z,0.68
2023-08-06T10:33:47.956Z,0.60
2023-08-06T10:36:16.128Z,0.70
2023-08-06T10:38:48.852Z,0.55
2023-08-06T10:41:20.001Z,0.60
2023-08-06T10:43:50.627Z,0.60
2023-08-06T10:46:30.233Z,0.77
2023-08-06T10:48:58.158Z,0.65
2023-08-06T10:51:25.544Z,0.70
2023-08-06T10:53:53.208Z,0.70
2023-08-06T10:56:26.390Z,0.80
2023-08-06T10:58:58.582Z,0.60
2023-08-06T11:01:30.016Z,0.60
2023-08-06T11:04:02.322Z,0.85
2023-08-06T11:06:29.761Z,0.77
2023-08-06T11:08:57.161Z,0.70
2023-08-06T11:11:25.339Z,0.90
2023-08-06T11:13:53.395Z,0.70
2023-08-06T11:16:24.558Z,1.08
2023-08-06T11:18:53.901Z,0.95
2023-08-06T11:21:22.401Z,0.90
2023-08-06T11:23:50.116Z,0.80
2023-08-06T11:26:21.613Z,0.90
2023-08-06T11:28:49.039Z,0.90
2023-08-06T11:31:25.797Z,0.90
2023-08-06T11:33:54.270Z,0.85
2023-08-06T11:36:37.602Z,1.15
2023-08-06T11:39:07.891Z,0.90
2023-08-06T11:41:39.033Z,1.00
2023-08-06T11:44:06.446Z,0.90
2023-08-06T11:46:53.996Z,1.23
2023-08-06T11:49:22.597Z,1.30
2023-08-06T11:51:50.347Z,1.20
2023-08-06T11:54:17.734Z,1.52
2023-08-06T11:56:47.506Z,1.73
2023-08-06T11:59:14.924Z,1.40
2023-08-06T12:01:42.331Z,1.55
2023-08-06T12:04:09.767Z,1.42
2023-08-06T12:06:44.459Z,1.40
2023-08-06T12:09:11.911Z,1.50
2023-08-06T12:11:39.287Z,1.20
2023-08-06T12:14:06.649Z,1.15
2023-08-06T12:16:34.040Z,0.90
2023-08-06T12:19:01.820Z,0.93
2023-08-06T12:21:29.325Z,1.10
2023-08-06T12:23:56.670Z,1.15
2023-08-06T12:26:23.982Z,2.00
2023-08-06T12:28:51.346Z,2.33
2023-08-06T12:31:18.706Z,2.05
2023-08-06T12:33:47.106Z,1.77
2023-08-06T12:38:41.582Z,1.85
2023-08-06T12:41:08.979Z,1.80
2023-08-06T12:43:36.367Z,1.95
2023-08-06T12:46:04.348Z,1.58
2023-08-06T12:48:32.669Z,1.73
2023-08-06T12:51:00.344Z,1.90
2023-08-06T12:53:28.962Z,1.52
2023-08-06T12:55:56.298Z,1.50
2023-08-06T12:58:23.684Z,1.45
2023-08-06T13:00:50.993Z,1.50
2023-08-06T13:03:18.548Z,1.48
2023-08-06T13:05:46.260Z,1.70
2023-08-06T13:08:13.557Z,1.70
2023-08-06T13:10:41.011Z,1.63
2023-08-06T13:13:08.410Z,1.40
2023-08-06T13:15:36.017Z,1.27
2023-08-06T13:18:03.511Z,1.40
2023-08-06T13:20:32.048Z,1.05
2023-08-06T13:23:02.157Z,1.00
2023-08-06T13:25:29.817Z,1.25
2023-08-06T13:27:57.109Z,1.00
2023-08-06T13:30:24.546Z,1.00
2023-08-06T13:32:52.013Z,0.98
2023-08-06T13:35:19.455Z,0.88
2023-08-06T13:37:49.043Z,1.00
2023-08-06T13:40:16.809Z,0.82
2023-08-06T13:42:44.618Z,1.33
2023-08-06T13:45:11.994Z,1.17
2023-08-06T13:47:39.540Z,1.55
2023-08-06T13:50:07.215Z,1.38
2023-08-06T13:52:36.306Z,1.35
2023-08-06T13:55:05.064Z,1.30
2023-08-06T13:57:32.849Z,1.55
2023-08-06T14:00:00.249Z,1.48
2023-08-06T14:02:28.130Z,1.35
2023-08-06T14:04:55.777Z,1.30
2023-08-06T14:07:23.094Z,1.30
2023-08-06T14:09:50.590Z,1.20
2023-08-06T14:12:18.090Z,1.10
2023-08-06T14:14:45.502Z,1.10
2023-08-06T14:17:12.825Z,1.10
2023-08-06T14:19:40.465Z,1.35
2023-08-06T14:22:07.754Z,1.20
2023-08-06T14:24:35.161Z,1.10
2023-08-06T14:27:04.699Z,1.42
2023-08-06T14:29:32.037Z,1.20
2023-08-06T14:31:59.457Z,1.20
2023-08-06T14:34:26.835Z,1.40
2023-08-06T14:36:54.400Z,1.20
2023-08-06T14:39:21.837Z,1.38
2023-08-06T14:41:49.277Z,1.20
2023-08-06T14:44:16.584Z,1.20
2023-08-06T14:46:44.099Z,1.15
2023-08-06T14:49:11.450Z,1.15
2023-08-06T14:51:40.008Z,1.48
2023-08-06T14:54:07.442Z,1.10
2023-08-06T14:56:34.758Z,1.10
2023-08-06T14:59:02.312Z,1.10
2023-08-06T15:01:29.753Z,1.15
2023-08-06T15:03:57.015Z,1.00
2023-08-06T15:06:24.446Z,1.35
2023-08-06T15:08:51.834Z,1.25
2023-08-06T15:11:19.107Z,1.23
2023-08-06T15:13:46.533Z,1.60
2023-08-06T15:16:13.895Z,1.58
2023-08-06T15:18:41.270Z,1.50
2023-08-06T15:21:08.640Z,1.20
2023-08-06T15:23:36.110Z,1.20
2023-08-06T15:26:03.827Z,1.40
2023-08-06T15:28:31.307Z,1.30
2023-08-06T15:30:58.717Z,1.02
2023-08-06T15:33:26.101Z,1.33
2023-08-06T15:35:53.431Z,1.35
2023-08-06T15:38:20.675Z,1.35
2023-08-06T15:40:47.968Z,1.02
2023-08-06T15:43:15.287Z,1.25
2023-08-06T15:45:42.689Z,1.20
2023-08-06T15:48:12.858Z,1.27
2023-08-06T15:50:42.358Z,1.08
2023-08-06T15:53:13.213Z,1.25
2023-08-06T15:55:40.769Z,1.20
2023-08-06T15:58:08.073Z,1.20
2023-08-06T16:00:35.431Z,1.40
2023-08-06T16:03:04.009Z,1.50
2023-08-06T16:05:32.144Z,1.25
2023-08-06T16:08:00.009Z,1.25
2023-08-06T16:10:27.317Z,1.15
2023-08-06T16:12:54.602Z,1.27
2023-08-06T16:15:21.914Z,1.30
2023-08-06T16:17:49.236Z,1.20
2023-08-06T16:20:16.837Z,1.23
2023-08-06T16:22:44.440Z,1.48
2023-08-06T16:25:13.083Z,1.25
2023-08-06T16:27:41.038Z,1.10
2023-08-06T16:32:38.132Z,1.50
2023-08-06T16:35:07.852Z,1.40
2023-08-06T16:37:35.161Z,1.70
2023-08-06T16:40:04.882Z,1.42
2023-08-06T16:42:32.185Z,1.23
2023-08-06T16:44:59.482Z,1.48
2023-08-06T16:47:26.897Z,1.10
2023-08-06T16:49:54.506Z,1.20
2023-08-06T16:52:21.881Z,1.10
2023-08-06T16:54:50.305Z,1.15
2023-08-06T16:57:17.730Z,1.30
2023-08-06T16:59:45.027Z,1.10
2023-08-06T17:02:12.505Z,1.40
2023-08-06T17:04:39.847Z,1.30
2023-08-06T17:07:07.167Z,1.30
2023-08-06T17:09:34.541Z,0.90
2023-08-06T17:12:02.364Z,1.20
2023-08-06T17:14:30.685Z,1.27
2023-08-06T17:16:58.430Z,1.30
2023-08-06T17:21:53.199Z,1.00
2023-08-06T17:24:20.492Z,1.17
2023-08-06T17:26:47.908Z,1.52
2023-08-06T17:29:15.253Z,1.30
2023-08-06T17:31:42.658Z,1.00
2023-08-06T17:34:10.011Z,1.40
2023-08-06T17:36:37.312Z,1.45
2023-08-06T17:39:04.601Z,1.55
2023-08-06T17:41:31.929Z,1.20
2023-08-06T17:43:59.387Z,1.30
2023-08-06T17:46:28.769Z,1.33
2023-08-06T17:48:57.690Z,1.60
2023-08-06T17:51:25.023Z,1.10
2023-08-06T17:53:52.534Z,1.02
2023-08-06T17:56:19.970Z,1.30
2023-08-06T17:58:47.375Z,1.58
2023-08-06T18:01:14.975Z,1.67
2023-08-06T18:03:44.629Z,1.52
2023-08-06T18:06:12.560Z,1.30
2023-08-06T18:08:40.153Z,1.50
2023-08-06T18:11:07.532Z,1.02
2023-08-06T18:13:36.239Z,1.30
2023-08-06T18:16:04.043Z,1.10
2023-08-06T18:18:31.449Z,1.02
2023-08-06T18:20:59.114Z,1.20
2023-08-06T18:23:27.033Z,1.38
2023-08-06T18:25:57.323Z,1.10
2023-08-06T18:28:26.840Z,1.30
2023-08-06T18:30:54.191Z,1.35
2023-08-06T18:33:22.639Z,1.27
2023-08-06T18:38:17.575Z,0.93
2023-08-06T18:40:45.038Z,1.33
2023-08-06T18:43:12.359Z,1.50
2023-08-06T18:45:42.536Z,1.60
2023-08-06T18:48:11.140Z,1.67
2023-08-06T18:50:38.632Z,1.50
2023-08-06T18:53:06.135Z,1.67
2023-08-06T18:55:35.880Z,1.58
2023-08-06T18:58:09.539Z,1.77
2023-08-06T19:00:40.516Z,1.58
2023-08-06T19:03:09.901Z,1.70
2023-08-06T19:05:41.456Z,1.90
2023-08-06T19:08:09.238Z,2.20
2023-08-06T19:10:37.064Z,1.80
2023-08-06T19:13:10.090Z,1.92
2023-08-06T19:15:38.369Z,1.92
2023-08-06T19:18:06.369Z,1.90
2023-08-06T19:20:36.788Z,1.92
2023-08-06T19:23:04.376Z,1.95
2023-08-06T19:25:33.712Z,2.08
2023-08-06T19:28:01.147Z,2.30
2023-08-06T19:30:28.506Z,2.00
2023-08-06T19:32:56.014Z,1.88
2023-08-06T19:35:25.474Z,2.40
2023-08-06T19:37:52.924Z,2.00
2023-08-06T19:40:20.221Z,2.20
2023-08-06T19:42:47.529Z,2.20
2023-08-06T19:45:14.958Z,2.30
2023-08-06T19:47:44.480Z,1.95
2023-08-06T19:50:12.110Z,2.63
2023-08-06T19:52:39.894Z,2.05
2023-08-06T19:55:07.549Z,2.28
2023-08-06T19:57:34.896Z,2.50
2023-08-06T20:00:02.326Z,2.30
2023-08-06T20:02:40.312Z,2.42
2023-08-06T20:05:07.994Z,2.30
2023-08-06T20:07:35.277Z,2.05
2023-08-06T20:10:02.669Z,2.53
2023-08-06T20:12:29.958Z,2.13
2023-08-06T20:14:58.392Z,2.17
2023-08-06T20:17:25.794Z,2.10
2023-08-06T20:19:53.079Z,2.65
2023-08-06T20:22:20.385Z,2.20
2023-08-06T20:24:48.697Z,2.25
2023-08-06T20:27:16.398Z,2.08
2023-08-06T20:29:43.739Z,2.20
2023-08-06T20:32:11.075Z,1.85
2023-08-06T20:34:38.395Z,2.20
2023-08-06T20:37:06.189Z,2.15
2023-08-06T20:39:33.454Z,2.47
2023-08-06T20:42:00.735Z,1.63
2023-08-06T20:44:30.814Z,1.75
2023-08-06T20:46:58.165Z,2.10
2023-08-06T20:49:25.445Z,2.15
2023-08-06T20:51:53.057Z,1.60
2023-08-06T20:54:20.665Z,1.85
2023-08-06T20:56:48.153Z,2.15
2023-08-06T20:59:15.484Z,1.85
2023-08-06T21:01:42.783Z,1.67
2023-08-06T21:04:11.711Z,1.40
2023-08-06T21:06:39.123Z,1.88
2023-08-06T21:09:07.879Z,1.60
2023-08-06T21:16:30.134Z,1.70
2023-08-06T21:18:57.620Z,1.38
2023-08-06T21:21:24.929Z,1.63
2023-08-06T21:23:52.228Z,1.48
2023-08-06T21:26:19.617Z,1.83
2023-08-06T21:28:46.970Z,1.80
2023-08-06T21:31:14.289Z,1.67
2023-08-06T21:33:43.533Z,1.40
2023-08-06T21:36:11.552Z,1.65
2023-08-06T21:38:40.852Z,1.42
2023-08-06T21:41:10.170Z,1.35
2023-08-06T21:43:39.696Z,1.52
2023-08-06T21:46:08.836Z,1.30
2023-08-06T21:48:37.711Z,1.50
2023-08-06T21:51:07.389Z,1.40
2023-08-06T21:53:36.374Z,1.35
2023-08-06T21:56:11.849Z,1.77
2023-08-06T21:58:41.581Z,1.75
2023-08-06T22:01:10.398Z,1.55
2023-08-06T22:03:38.939Z,1.80
2023-08-06T22:06:08.562Z,1.80
2023-08-06T22:08:36.064Z,1.45
2023-08-06T22:11:04.137Z,1.75
2023-08-06T22:13:32.088Z,1.75
2023-08-06T22:16:00.009Z,1.92
2023-08-06T22:18:27.728Z,1.70
2023-08-06T22:20:58.498Z,1.30
2023-08-06T22:23:26.073Z,1.70
2023-08-06T22:25:54.072Z,2.13
2023-08-06T22:28:22.436Z,2.17
2023-08-06T22:30:50.152Z,2.10
2023-08-06T22:33:22.932Z,2.30
2023-08-06T22:35:51.696Z,2.05
2023-08-06T22:38:19.521Z,1.88
2023-08-06T22:40:46.941Z,1.88
2023-08-06T22:43:14.224Z,1.80
2023-08-06T22:45:41.581Z,2.00
2023-08-06T22:48:08.913Z,2.00
2023-08-06T22:50:36.226Z,2.03
2023-08-06T22:53:03.534Z,1.42
2023-08-06T22:55:57.568Z,1.90
2023-08-06T22:58:18.086Z,1.77
2023-08-06T23:00:45.406Z,1.80
2023-08-06T23:03:13.326Z,1.83
2023-08-06T23:05:41.424Z,1.65
2023-08-06T23:08:09.299Z,1.88
2023-08-06T23:10:36.723Z,1.65
2023-08-06T23:13:07.489Z,1.75
2023-08-06T23:15:34.940Z,1.52
2023-08-06T23:18:02.422Z,1.70
2023-08-06T23:20:29.930Z,1.70
2023-08-06T23:22:57.235Z,1.50
2023-08-06T23:25:24.567Z,1.40
2023-08-06T23:27:51.906Z,1.40
2023-08-06T23:30:19.237Z,1.55
2023-08-06T23:32:48.345Z,1.30
2023-08-06T23:35:25.489Z,1.55
2023-08-06T23:37:52.820Z,1.27
2023-08-06T23:40:21.854Z,1.23
2023-08-06T23:42:49.254Z,1.17
2023-08-06T23:45:16.784Z,1.90
2023-08-06T23:47:44.449Z,1.58
2023-08-06T23:50:11.861Z,1.70
2023-08-06T23:52:39.170Z,1.52
2023-08-06T23:55:06.712Z,1.40
2023-08-06T23:57:34.165Z,1.90
